Terminal Aerodrome Forecast
Issued by NWS Sterling, VA

Home | Current Version | Previous Version | Text Only | Print | Product List | Glossary On
Versions: 1 2 3 4 5 6 7 8 9 10 11 12 13 14 15 16 17 18 19 20 21 22 23
000
FTUS41 KLWX 191737
TAFBWI
TAF
KBWI 191737Z 1918/2024 11014G21KT P6SM SCT250
     FM192100 10013G20KT P6SM BKN100
     FM200000 09014G24KT 5SM -RA OVC025
     FM200300 09016G25KT 3SM +RA OVC015
     FM200800 13019G27KT 2SM +RA OVC008
     FM201000 14014G19KT 3SM RA OVC008
     FM201200 16010KT P6SM OVC008
     FM201400 20009KT P6SM OVC012
     FM201800 20011KT P6SM BKN110
     FM202200 20011KT 6SM -SHRA BKN070=

USA.gov is the U.S. government's official web portal to all federal, state and local government web resources and services.